sensor_id;sensor_type;location;lat;lon;timestamp;P1;durP1;ratioP1;P2;durP2;ratioP2
21122;SDS011;10719;48.130;11.630;2023-04-06T00:00:49;3.57;;;1.83;;
21122;SDS011;10719;48.130;11.630;2023-04-06T00:03:15;6.93;;;1.83;;
21122;SDS011;10719;48.130;11.630;2023-04-06T00:05:41;3.80;;;1.80;;
21122;SDS011;10719;48.130;11.630;2023-04-06T00:08:07;3.23;;;1.40;;
21122;SDS011;10719;48.130;11.630;2023-04-06T00:10:32;5.30;;;2.27;;
21122;SDS011;10719;48.130;11.630;2023-04-06T00:12:58;9.60;;;2.67;;
21122;SDS011;10719;48.130;11.630;2023-04-06T00:15:25;4.83;;;1.57;;
21122;SDS011;10719;48.130;11.630;2023-04-06T00:17:51;4.17;;;1.90;;
21122;SDS011;10719;48.130;11.630;2023-04-06T00:20:17;6.40;;;2.97;;
21122;SDS011;10719;48.130;11.630;2023-04-06T00:22:43;2.27;;;1.10;;
21122;SDS011;10719;48.130;11.630;2023-04-06T00:25:09;3.77;;;2.07;;
21122;SDS011;10719;48.130;11.630;2023-04-06T00:27:36;5.40;;;2.63;;
21122;SDS011;10719;48.130;11.630;2023-04-06T00:30:02;6.43;;;2.23;;
21122;SDS011;10719;48.130;11.630;2023-04-06T00:32:29;4.07;;;2.20;;
21122;SDS011;10719;48.130;11.630;2023-04-06T00:34:55;5.77;;;2.20;;
21122;SDS011;10719;48.130;11.630;2023-04-06T00:37:21;4.97;;;2.13;;
21122;SDS011;10719;48.130;11.630;2023-04-06T00:39:47;3.77;;;1.87;;
21122;SDS011;10719;48.130;11.630;2023-04-06T00:42:12;6.60;;;2.30;;
21122;SDS011;10719;48.130;11.630;2023-04-06T00:44:41;5.80;;;2.10;;
21122;SDS011;10719;48.130;11.630;2023-04-06T00:47:08;6.50;;;2.00;;
21122;SDS011;10719;48.130;11.630;2023-04-06T00:49:34;4.77;;;1.70;;
21122;SDS011;10719;48.130;11.630;2023-04-06T00:52:00;6.10;;;2.40;;
21122;SDS011;10719;48.130;11.630;2023-04-06T00:54:26;3.47;;;1.47;;
21122;SDS011;10719;48.130;11.630;2023-04-06T00:56:53;4.97;;;2.30;;
21122;SDS011;10719;48.130;11.630;2023-04-06T00:59:18;4.00;;;1.67;;
21122;SDS011;10719;48.130;11.630;2023-04-06T01:01:44;3.23;;;1.30;;
21122;SDS011;10719;48.130;11.630;2023-04-06T01:04:10;2.70;;;1.13;;
21122;SDS011;10719;48.130;11.630;2023-04-06T01:06:36;3.87;;;1.67;;
21122;SDS011;10719;48.130;11.630;2023-04-06T01:09:02;2.17;;;1.10;;
21122;SDS011;10719;48.130;11.630;2023-04-06T01:11:27;2.37;;;1.43;;
21122;SDS011;10719;48.130;11.630;2023-04-06T01:13:53;7.20;;;2.60;;
21122;SDS011;10719;48.130;11.630;2023-04-06T01:16:19;4.40;;;2.10;;
21122;SDS011;10719;48.130;11.630;2023-04-06T01:18:45;3.23;;;1.37;;
21122;SDS011;10719;48.130;11.630;2023-04-06T01:21:10;3.40;;;1.53;;
21122;SDS011;10719;48.130;11.630;2023-04-06T01:23:42;8.10;;;3.23;;
21122;SDS011;10719;48.130;11.630;2023-04-06T01:26:13;2.97;;;1.67;;
21122;SDS011;10719;48.130;11.630;2023-04-06T01:28:39;3.53;;;1.60;;
21122;SDS011;10719;48.130;11.630;2023-04-06T01:31:06;2.07;;;1.20;;
21122;SDS011;10719;48.130;11.630;2023-04-06T01:33:32;3.03;;;1.33;;
21122;SDS011;10719;48.130;11.630;2023-04-06T01:35:58;3.63;;;1.63;;
21122;SDS011;10719;48.130;11.630;2023-04-06T01:38:25;3.00;;;1.40;;
21122;SDS011;10719;48.130;11.630;2023-04-06T01:40:51;2.97;;;1.50;;
21122;SDS011;10719;48.130;11.630;2023-04-06T01:43:17;6.03;;;1.77;;
21122;SDS011;10719;48.130;11.630;2023-04-06T01:45:43;2.60;;;1.70;;
21122;SDS011;10719;48.130;11.630;2023-04-06T01:48:08;9.13;;;2.37;;
21122;SDS011;10719;48.130;11.630;2023-04-06T01:50:35;2.00;;;1.23;;
21122;SDS011;10719;48.130;11.630;2023-04-06T01:53:01;3.63;;;1.30;;
21122;SDS011;10719;48.130;11.630;2023-04-06T01:55:27;3.30;;;1.47;;
21122;SDS011;10719;48.130;11.630;2023-04-06T01:57:52;3.23;;;1.50;;
21122;SDS011;10719;48.130;11.630;2023-04-06T02:00:18;4.97;;;1.80;;
21122;SDS011;10719;48.130;11.630;2023-04-06T02:02:44;1.23;;;0.90;;
21122;SDS011;10719;48.130;11.630;2023-04-06T02:05:10;4.73;;;2.00;;
21122;SDS011;10719;48.130;11.630;2023-04-06T02:07:36;4.43;;;1.50;;
21122;SDS011;10719;48.130;11.630;2023-04-06T02:10:02;1.97;;;1.07;;
21122;SDS011;10719;48.130;11.630;2023-04-06T02:12:28;2.33;;;1.17;;
21122;SDS011;10719;48.130;11.630;2023-04-06T02:14:54;4.60;;;2.00;;
21122;SDS011;10719;48.130;11.630;2023-04-06T02:17:20;4.90;;;1.13;;
21122;SDS011;10719;48.130;11.630;2023-04-06T02:19:45;2.10;;;1.23;;
21122;SDS011;10719;48.130;11.630;2023-04-06T02:22:11;3.83;;;1.33;;
21122;SDS011;10719;48.130;11.630;2023-04-06T02:24:37;3.10;;;1.77;;
21122;SDS011;10719;48.130;11.630;2023-04-06T02:27:03;4.83;;;1.27;;
21122;SDS011;10719;48.130;11.630;2023-04-06T02:29:28;3.67;;;1.83;;
21122;SDS011;10719;48.130;11.630;2023-04-06T02:31:54;2.47;;;1.33;;
21122;SDS011;10719;48.130;11.630;2023-04-06T02:34:20;3.90;;;1.50;;
21122;SDS011;10719;48.130;11.630;2023-04-06T02:36:45;4.00;;;1.77;;
21122;SDS011;10719;48.130;11.630;2023-04-06T02:39:12;4.50;;;2.03;;
21122;SDS011;10719;48.130;11.630;2023-04-06T02:41:38;4.93;;;1.73;;
21122;SDS011;10719;48.130;11.630;2023-04-06T02:44:06;3.73;;;1.67;;
21122;SDS011;10719;48.130;11.630;2023-04-06T02:46:33;3.97;;;1.60;;
21122;SDS011;10719;48.130;11.630;2023-04-06T02:48:59;6.47;;;1.20;;
21122;SDS011;10719;48.130;11.630;2023-04-06T02:51:25;4.17;;;1.80;;
21122;SDS011;10719;48.130;11.630;2023-04-06T02:53:51;4.33;;;1.70;;
21122;SDS011;10719;48.130;11.630;2023-04-06T02:56:17;2.90;;;1.43;;
21122;SDS011;10719;48.130;11.630;2023-04-06T02:58:43;1.63;;;1.00;;
21122;SDS011;10719;48.130;11.630;2023-04-06T03:01:08;3.47;;;1.63;;
21122;SDS011;10719;48.130;11.630;2023-04-06T03:03:34;4.53;;;2.13;;
21122;SDS011;10719;48.130;11.630;2023-04-06T03:06:00;2.63;;;1.40;;
21122;SDS011;10719;48.130;11.630;2023-04-06T03:08:26;1.70;;;1.17;;
21122;SDS011;10719;48.130;11.630;2023-04-06T03:10:51;2.80;;;1.67;;
21122;SDS011;10719;48.130;11.630;2023-04-06T03:13:17;4.40;;;1.70;;
21122;SDS011;10719;48.130;11.630;2023-04-06T03:15:42;3.83;;;2.00;;
21122;SDS011;10719;48.130;11.630;2023-04-06T03:18:08;2.50;;;1.63;;
21122;SDS011;10719;48.130;11.630;2023-04-06T03:20:33;3.50;;;1.60;;
21122;SDS011;10719;48.130;11.630;2023-04-06T03:22:59;2.60;;;1.17;;
21122;SDS011;10719;48.130;11.630;2023-04-06T03:25:25;1.40;;;0.90;;
21122;SDS011;10719;48.130;11.630;2023-04-06T03:27:50;3.93;;;1.27;;
21122;SDS011;10719;48.130;11.630;2023-04-06T03:30:16;5.07;;;2.40;;
21122;SDS011;10719;48.130;11.630;2023-04-06T03:32:43;2.23;;;1.13;;
21122;SDS011;10719;48.130;11.630;2023-04-06T03:35:09;3.70;;;1.33;;
21122;SDS011;10719;48.130;11.630;2023-04-06T03:37:35;2.80;;;1.30;;
21122;SDS011;10719;48.130;11.630;2023-04-06T03:40:00;3.73;;;1.80;;
21122;SDS011;10719;48.130;11.630;2023-04-06T03:42:26;6.33;;;1.80;;
21122;SDS011;10719;48.130;11.630;2023-04-06T03:44:52;2.97;;;1.40;;
21122;SDS011;10719;48.130;11.630;2023-04-06T03:47:17;2.70;;;1.70;;
21122;SDS011;10719;48.130;11.630;2023-04-06T03:49:43;6.07;;;1.60;;
21122;SDS011;10719;48.130;11.630;2023-04-06T03:52:09;4.77;;;1.63;;
21122;SDS011;10719;48.130;11.630;2023-04-06T03:54:34;2.13;;;1.13;;
21122;SDS011;10719;48.130;11.630;2023-04-06T03:57:01;2.33;;;1.20;;
21122;SDS011;10719;48.130;11.630;2023-04-06T03:59:26;2.60;;;1.57;;
21122;SDS011;10719;48.130;11.630;2023-04-06T04:01:52;2.40;;;1.33;;
21122;SDS011;10719;48.130;11.630;2023-04-06T04:04:18;2.90;;;1.10;;
21122;SDS011;10719;48.130;11.630;2023-04-06T04:06:44;1.93;;;1.27;;
21122;SDS011;10719;48.130;11.630;2023-04-06T04:09:09;6.53;;;1.87;;
21122;SDS011;10719;48.130;11.630;2023-04-06T04:11:35;3.27;;;1.60;;
21122;SDS011;10719;48.130;11.630;2023-04-06T04:14:01;2.10;;;1.10;;
21122;SDS011;10719;48.130;11.630;2023-04-06T04:16:26;3.40;;;1.80;;
21122;SDS011;10719;48.130;11.630;2023-04-06T04:18:52;3.60;;;1.30;;
21122;SDS011;10719;48.130;11.630;2023-04-06T04:21:18;3.00;;;1.40;;
21122;SDS011;10719;48.130;11.630;2023-04-06T04:23:43;2.13;;;1.03;;
21122;SDS011;10719;48.130;11.630;2023-04-06T04:26:09;2.63;;;1.23;;
21122;SDS011;10719;48.130;11.630;2023-04-06T04:28:35;3.50;;;1.33;;
21122;SDS011;10719;48.130;11.630;2023-04-06T04:31:01;6.03;;;2.07;;
21122;SDS011;10719;48.130;11.630;2023-04-06T04:33:26;4.57;;;1.80;;
21122;SDS011;10719;48.130;11.630;2023-04-06T04:35:52;1.47;;;1.00;;
21122;SDS011;10719;48.130;11.630;2023-04-06T04:38:18;3.00;;;1.57;;
21122;SDS011;10719;48.130;11.630;2023-04-06T04:40:43;4.10;;;1.57;;
21122;SDS011;10719;48.130;11.630;2023-04-06T04:43:09;4.77;;;1.83;;
21122;SDS011;10719;48.130;11.630;2023-04-06T04:45:34;7.83;;;1.93;;
21122;SDS011;10719;48.130;11.630;2023-04-06T04:48:00;1.67;;;1.10;;
21122;SDS011;10719;48.130;11.630;2023-04-06T04:50:26;2.80;;;1.40;;
21122;SDS011;10719;48.130;11.630;2023-04-06T04:52:51;3.63;;;1.30;;
21122;SDS011;10719;48.130;11.630;2023-04-06T04:55:17;3.60;;;1.50;;
21122;SDS011;10719;48.130;11.630;2023-04-06T04:57:43;2.83;;;1.87;;
21122;SDS011;10719;48.130;11.630;2023-04-06T05:00:08;3.87;;;1.07;;
21122;SDS011;10719;48.130;11.630;2023-04-06T05:02:34;2.43;;;1.37;;
21122;SDS011;10719;48.130;11.630;2023-04-06T05:05:00;1.20;;;0.93;;
21122;SDS011;10719;48.130;11.630;2023-04-06T05:07:26;2.20;;;1.00;;
21122;SDS011;10719;48.130;11.630;2023-04-06T05:09:52;4.93;;;2.47;;
21122;SDS011;10719;48.130;11.630;2023-04-06T05:12:18;4.13;;;1.60;;
21122;SDS011;10719;48.130;11.630;2023-04-06T05:14:44;4.20;;;2.10;;
21122;SDS011;10719;48.130;11.630;2023-04-06T05:17:10;5.63;;;2.03;;
21122;SDS011;10719;48.130;11.630;2023-04-06T05:19:36;10.07;;;1.67;;
21122;SDS011;10719;48.130;11.630;2023-04-06T05:22:02;2.00;;;1.40;;
21122;SDS011;10719;48.130;11.630;2023-04-06T05:24:27;7.05;;;2.55;;
21122;SDS011;10719;48.130;11.630;2023-04-06T05:26:53;4.50;;;2.23;;
21122;SDS011;10719;48.130;11.630;2023-04-06T05:29:19;4.10;;;2.13;;
21122;SDS011;10719;48.130;11.630;2023-04-06T05:31:46;7.63;;;2.00;;
21122;SDS011;10719;48.130;11.630;2023-04-06T05:34:11;3.83;;;1.47;;
21122;SDS011;10719;48.130;11.630;2023-04-06T05:36:37;4.23;;;2.13;;
21122;SDS011;10719;48.130;11.630;2023-04-06T05:39:03;2.90;;;1.37;;
21122;SDS011;10719;48.130;11.630;2023-04-06T05:41:29;2.63;;;1.30;;
21122;SDS011;10719;48.130;11.630;2023-04-06T05:43:55;2.40;;;1.13;;
21122;SDS011;10719;48.130;11.630;2023-04-06T05:46:20;4.03;;;1.63;;
21122;SDS011;10719;48.130;11.630;2023-04-06T05:48:46;5.63;;;1.83;;
21122;SDS011;10719;48.130;11.630;2023-04-06T05:51:12;6.00;;;2.43;;
21122;SDS011;10719;48.130;11.630;2023-04-06T05:53:38;2.97;;;1.13;;
21122;SDS011;10719;48.130;11.630;2023-04-06T05:56:04;5.83;;;2.60;;
21122;SDS011;10719;48.130;11.630;2023-04-06T05:58:30;5.93;;;2.07;;
21122;SDS011;10719;48.130;11.630;2023-04-06T06:00:56;3.33;;;1.67;;
21122;SDS011;10719;48.130;11.630;2023-04-06T06:03:22;4.57;;;1.83;;
21122;SDS011;10719;48.130;11.630;2023-04-06T06:05:48;5.27;;;1.60;;
21122;SDS011;10719;48.130;11.630;2023-04-06T06:08:14;3.33;;;1.80;;
21122;SDS011;10719;48.130;11.630;2023-04-06T06:10:39;4.90;;;1.80;;
21122;SDS011;10719;48.130;11.630;2023-04-06T06:13:05;2.73;;;1.60;;
21122;SDS011;10719;48.130;11.630;2023-04-06T06:15:31;5.80;;;2.23;;
21122;SDS011;10719;48.130;11.630;2023-04-06T06:17:57;4.30;;;1.80;;
21122;SDS011;10719;48.130;11.630;2023-04-06T06:20:22;4.57;;;1.90;;
21122;SDS011;10719;48.130;11.630;2023-04-06T06:22:48;2.30;;;1.33;;
21122;SDS011;10719;48.130;11.630;2023-04-06T06:25:14;4.83;;;1.97;;
21122;SDS011;10719;48.130;11.630;2023-04-06T06:27:40;7.67;;;2.67;;
21122;SDS011;10719;48.130;11.630;2023-04-06T06:30:07;3.47;;;1.83;;
21122;SDS011;10719;48.130;11.630;2023-04-06T06:32:33;4.30;;;2.53;;
21122;SDS011;10719;48.130;11.630;2023-04-06T06:34:58;7.83;;;2.50;;
21122;SDS011;10719;48.130;11.630;2023-04-06T06:37:24;4.33;;;2.03;;
21122;SDS011;10719;48.130;11.630;2023-04-06T06:39:50;2.87;;;1.30;;
21122;SDS011;10719;48.130;11.630;2023-04-06T06:42:15;5.73;;;1.90;;
21122;SDS011;10719;48.130;11.630;2023-04-06T06:44:41;3.80;;;1.90;;
21122;SDS011;10719;48.130;11.630;2023-04-06T06:47:06;5.07;;;2.00;;
21122;SDS011;10719;48.130;11.630;2023-04-06T06:49:32;3.43;;;1.43;;
21122;SDS011;10719;48.130;11.630;2023-04-06T06:51:58;5.20;;;2.27;;
21122;SDS011;10719;48.130;11.630;2023-04-06T06:54:23;4.97;;;2.40;;
21122;SDS011;10719;48.130;11.630;2023-04-06T06:56:49;6.30;;;1.83;;
21122;SDS011;10719;48.130;11.630;2023-04-06T06:59:15;11.87;;;4.27;;
21122;SDS011;10719;48.130;11.630;2023-04-06T07:01:41;4.03;;;2.10;;
21122;SDS011;10719;48.130;11.630;2023-04-06T07:04:06;5.57;;;2.53;;
21122;SDS011;10719;48.130;11.630;2023-04-06T07:06:34;3.40;;;1.97;;
21122;SDS011;10719;48.130;11.630;2023-04-06T07:09:00;4.10;;;2.03;;
21122;SDS011;10719;48.130;11.630;2023-04-06T07:11:28;9.20;;;2.77;;
21122;SDS011;10719;48.130;11.630;2023-04-06T07:13:54;6.50;;;2.63;;
21122;SDS011;10719;48.130;11.630;2023-04-06T07:16:20;6.55;;;2.80;;
21122;SDS011;10719;48.130;11.630;2023-04-06T07:18:45;5.88;;;2.40;;
21122;SDS011;10719;48.130;11.630;2023-04-06T07:21:11;5.60;;;2.50;;
21122;SDS011;10719;48.130;11.630;2023-04-06T07:23:37;7.22;;;2.70;;
21122;SDS011;10719;48.130;11.630;2023-04-06T07:26:03;21.77;;;2.63;;
21122;SDS011;10719;48.130;11.630;2023-04-06T07:28:28;9.15;;;3.35;;
21122;SDS011;10719;48.130;11.630;2023-04-06T07:30:54;10.90;;;3.17;;
21122;SDS011;10719;48.130;11.630;2023-04-06T07:33:20;4.10;;;2.00;;
21122;SDS011;10719;48.130;11.630;2023-04-06T07:35:45;5.97;;;2.63;;
21122;SDS011;10719;48.130;11.630;2023-04-06T07:38:11;6.30;;;2.28;;
21122;SDS011;10719;48.130;11.630;2023-04-06T07:40:37;6.10;;;2.67;;
21122;SDS011;10719;48.130;11.630;2023-04-06T07:43:02;11.00;;;3.97;;
21122;SDS011;10719;48.130;11.630;2023-04-06T07:45:28;6.82;;;2.83;;
21122;SDS011;10719;48.130;11.630;2023-04-06T07:47:54;6.75;;;2.45;;
21122;SDS011;10719;48.130;11.630;2023-04-06T07:50:20;4.78;;;2.25;;
21122;SDS011;10719;48.130;11.630;2023-04-06T07:52:46;9.82;;;2.85;;
21122;SDS011;10719;48.130;11.630;2023-04-06T07:55:12;6.50;;;2.28;;
21122;SDS011;10719;48.130;11.630;2023-04-06T07:57:37;7.35;;;2.58;;
21122;SDS011;10719;48.130;11.630;2023-04-06T08:00:03;6.35;;;2.50;;
21122;SDS011;10719;48.130;11.630;2023-04-06T08:02:30;6.10;;;2.55;;
21122;SDS011;10719;48.130;11.630;2023-04-06T08:04:58;6.88;;;2.13;;
21122;SDS011;10719;48.130;11.630;2023-04-06T08:07:24;10.13;;;4.00;;
21122;SDS011;10719;48.130;11.630;2023-04-06T08:09:49;8.07;;;3.22;;
21122;SDS011;10719;48.130;11.630;2023-04-06T08:12:15;6.85;;;3.60;;
21122;SDS011;10719;48.130;11.630;2023-04-06T08:14:41;6.90;;;2.72;;
21122;SDS011;10719;48.130;11.630;2023-04-06T08:17:06;5.78;;;2.63;;
21122;SDS011;10719;48.130;11.630;2023-04-06T08:19:32;12.03;;;4.57;;
21122;SDS011;10719;48.130;11.630;2023-04-06T08:21:57;7.47;;;3.10;;
21122;SDS011;10719;48.130;11.630;2023-04-06T08:24:23;19.65;;;4.03;;
21122;SDS011;10719;48.130;11.630;2023-04-06T08:26:50;6.47;;;2.78;;
21122;SDS011;10719;48.130;11.630;2023-04-06T08:29:17;10.73;;;2.15;;
21122;SDS011;10719;48.130;11.630;2023-04-06T08:31:43;7.28;;;2.65;;
21122;SDS011;10719;48.130;11.630;2023-04-06T08:34:09;7.65;;;3.25;;
21122;SDS011;10719;48.130;11.630;2023-04-06T08:36:35;7.00;;;2.80;;
21122;SDS011;10719;48.130;11.630;2023-04-06T08:39:00;7.78;;;3.13;;
21122;SDS011;10719;48.130;11.630;2023-04-06T08:41:26;7.85;;;2.30;;
21122;SDS011;10719;48.130;11.630;2023-04-06T08:43:56;6.85;;;3.00;;
21122;SDS011;10719;48.130;11.630;2023-04-06T08:46:23;7.40;;;2.92;;
21122;SDS011;10719;48.130;11.630;2023-04-06T08:48:58;4.97;;;3.00;;
21122;SDS011;10719;48.130;11.630;2023-04-06T08:51:25;9.02;;;2.50;;
21122;SDS011;10719;48.130;11.630;2023-04-06T08:53:52;6.75;;;2.75;;
21122;SDS011;10719;48.130;11.630;2023-04-06T08:56:26;8.98;;;2.83;;
21122;SDS011;10719;48.130;11.630;2023-04-06T08:58:53;7.25;;;2.72;;
21122;SDS011;10719;48.130;11.630;2023-04-06T09:01:20;8.55;;;3.13;;
21122;SDS011;10719;48.130;11.630;2023-04-06T09:03:48;7.05;;;2.83;;
21122;SDS011;10719;48.130;11.630;2023-04-06T09:06:15;4.90;;;2.20;;
21122;SDS011;10719;48.130;11.630;2023-04-06T09:08:41;6.60;;;3.00;;
21122;SDS011;10719;48.130;11.630;2023-04-06T09:11:07;7.85;;;3.05;;
21122;SDS011;10719;48.130;11.630;2023-04-06T09:13:49;5.30;;;2.72;;
21122;SDS011;10719;48.130;11.630;2023-04-06T09:16:16;9.75;;;3.85;;
21122;SDS011;10719;48.130;11.630;2023-04-06T09:18:43;9.68;;;3.40;;
21122;SDS011;10719;48.130;11.630;2023-04-06T09:21:09;6.22;;;3.08;;
21122;SDS011;10719;48.130;11.630;2023-04-06T09:23:35;8.50;;;3.15;;
21122;SDS011;10719;48.130;11.630;2023-04-06T09:26:04;8.48;;;3.75;;
21122;SDS011;10719;48.130;11.630;2023-04-06T09:31:13;8.15;;;3.55;;
21122;SDS011;10719;48.130;11.630;2023-04-06T09:33:50;12.73;;;4.15;;
21122;SDS011;10719;48.130;11.630;2023-04-06T09:36:19;10.45;;;3.88;;
21122;SDS011;10719;48.130;11.630;2023-04-06T09:38:56;12.90;;;3.60;;
21122;SDS011;10719;48.130;11.630;2023-04-06T09:41:26;10.40;;;4.18;;
21122;SDS011;10719;48.130;11.630;2023-04-06T09:44:06;12.35;;;4.00;;
21122;SDS011;10719;48.130;11.630;2023-04-06T09:46:35;9.55;;;3.90;;
21122;SDS011;10719;48.130;11.630;2023-04-06T09:49:03;9.27;;;3.33;;
21122;SDS011;10719;48.130;11.630;2023-04-06T09:51:30;11.68;;;3.88;;
21122;SDS011;10719;48.130;11.630;2023-04-06T09:53:57;8.02;;;3.72;;
21122;SDS011;10719;48.130;11.630;2023-04-06T09:56:28;8.93;;;3.75;;
21122;SDS011;10719;48.130;11.630;2023-04-06T09:59:01;12.05;;;4.28;;
21122;SDS011;10719;48.130;11.630;2023-04-06T10:01:30;10.18;;;3.78;;
21122;SDS011;10719;48.130;11.630;2023-04-06T10:04:04;9.35;;;3.75;;
21122;SDS011;10719;48.130;11.630;2023-04-06T10:06:46;10.00;;;3.83;;
21122;SDS011;10719;48.130;11.630;2023-04-06T10:09:17;9.88;;;3.70;;
21122;SDS011;10719;48.130;11.630;2023-04-06T10:11:43;9.30;;;3.92;;
21122;SDS011;10719;48.130;11.630;2023-04-06T10:14:10;8.68;;;3.60;;
21122;SDS011;10719;48.130;11.630;2023-04-06T10:16:36;10.40;;;3.72;;
21122;SDS011;10719;48.130;11.630;2023-04-06T10:19:05;8.93;;;3.75;;
21122;SDS011;10719;48.130;11.630;2023-04-06T10:21:36;10.98;;;4.82;;
21122;SDS011;10719;48.130;11.630;2023-04-06T10:24:06;9.50;;;3.85;;
21122;SDS011;10719;48.130;11.630;2023-04-06T10:26:37;8.68;;;3.45;;
21122;SDS011;10719;48.130;11.630;2023-04-06T10:29:03;9.95;;;3.88;;
21122;SDS011;10719;48.130;11.630;2023-04-06T10:31:29;10.25;;;3.70;;
21122;SDS011;10719;48.130;11.630;2023-04-06T10:34:01;12.45;;;4.47;;
21122;SDS011;10719;48.130;11.630;2023-04-06T10:36:28;16.08;;;3.30;;
21122;SDS011;10719;48.130;11.630;2023-04-06T10:38:58;9.52;;;3.25;;
21122;SDS011;10719;48.130;11.630;2023-04-06T10:41:35;8.32;;;3.20;;
21122;SDS011;10719;48.130;11.630;2023-04-06T10:44:07;13.88;;;4.68;;
21122;SDS011;10719;48.130;11.630;2023-04-06T10:46:42;10.50;;;3.85;;
21122;SDS011;10719;48.130;11.630;2023-04-06T10:49:18;10.48;;;3.65;;
21122;SDS011;10719;48.130;11.630;2023-04-06T10:51:44;10.35;;;3.42;;
21122;SDS011;10719;48.130;11.630;2023-04-06T10:54:10;9.63;;;3.42;;
21122;SDS011;10719;48.130;11.630;2023-04-06T10:56:37;12.23;;;3.50;;
21122;SDS011;10719;48.130;11.630;2023-04-06T10:59:04;10.10;;;4.00;;
21122;SDS011;10719;48.130;11.630;2023-04-06T11:01:31;11.00;;;3.45;;
21122;SDS011;10719;48.130;11.630;2023-04-06T11:03:57;10.10;;;3.80;;
21122;SDS011;10719;48.130;11.630;2023-04-06T11:06:26;10.55;;;3.55;;
21122;SDS011;10719;48.130;11.630;2023-04-06T11:08:54;10.32;;;3.75;;
21122;SDS011;10719;48.130;11.630;2023-04-06T11:11:21;8.40;;;2.95;;
21122;SDS011;10719;48.130;11.630;2023-04-06T11:13:49;9.25;;;3.28;;
21122;SDS011;10719;48.130;11.630;2023-04-06T11:16:19;10.95;;;4.13;;
21122;SDS011;10719;48.130;11.630;2023-04-06T11:18:59;10.35;;;3.90;;
21122;SDS011;10719;48.130;11.630;2023-04-06T11:21:33;9.23;;;3.63;;
21122;SDS011;10719;48.130;11.630;2023-04-06T11:24:21;8.95;;;3.90;;
21122;SDS011;10719;48.130;11.630;2023-04-06T11:26:48;9.85;;;3.50;;
21122;SDS011;10719;48.130;11.630;2023-04-06T11:29:19;10.13;;;4.10;;
21122;SDS011;10719;48.130;11.630;2023-04-06T11:34:18;11.70;;;4.28;;
21122;SDS011;10719;48.130;11.630;2023-04-06T11:36:46;6.38;;;2.83;;
21122;SDS011;10719;48.130;11.630;2023-04-06T11:39:13;10.43;;;3.80;;
21122;SDS011;10719;48.130;11.630;2023-04-06T11:41:46;8.00;;;3.85;;
21122;SDS011;10719;48.130;11.630;2023-04-06T11:44:13;10.13;;;3.63;;
21122;SDS011;10719;48.130;11.630;2023-04-06T11:46:39;9.13;;;3.55;;
21122;SDS011;10719;48.130;11.630;2023-04-06T11:49:04;9.38;;;3.92;;
21122;SDS011;10719;48.130;11.630;2023-04-06T11:51:30;18.02;;;4.25;;
21122;SDS011;10719;48.130;11.630;2023-04-06T11:54:01;8.93;;;3.83;;
21122;SDS011;10719;48.130;11.630;2023-04-06T11:56:30;9.35;;;3.63;;
21122;SDS011;10719;48.130;11.630;2023-04-06T11:58:56;9.40;;;3.92;;
21122;SDS011;10719;48.130;11.630;2023-04-06T12:01:24;9.00;;;3.40;;
21122;SDS011;10719;48.130;11.630;2023-04-06T12:03:51;12.98;;;4.10;;
21122;SDS011;10719;48.130;11.630;2023-04-06T12:06:17;12.10;;;3.53;;
21122;SDS011;10719;48.130;11.630;2023-04-06T12:08:43;8.25;;;3.90;;
21122;SDS011;10719;48.130;11.630;2023-04-06T12:11:09;11.75;;;4.53;;
21122;SDS011;10719;48.130;11.630;2023-04-06T12:13:36;9.93;;;3.30;;
21122;SDS011;10719;48.130;11.630;2023-04-06T12:16:02;8.63;;;3.58;;
21122;SDS011;10719;48.130;11.630;2023-04-06T12:18:27;9.50;;;3.28;;
21122;SDS011;10719;48.130;11.630;2023-04-06T12:20:54;9.48;;;3.75;;
21122;SDS011;10719;48.130;11.630;2023-04-06T12:23:20;8.35;;;3.75;;
21122;SDS011;10719;48.130;11.630;2023-04-06T12:25:45;9.70;;;3.85;;
21122;SDS011;10719;48.130;11.630;2023-04-06T12:28:11;11.48;;;4.45;;
21122;SDS011;10719;48.130;11.630;2023-04-06T12:30:37;8.73;;;3.72;;
21122;SDS011;10719;48.130;11.630;2023-04-06T12:33:03;10.88;;;4.13;;
21122;SDS011;10719;48.130;11.630;2023-04-06T12:35:28;13.20;;;4.25;;
21122;SDS011;10719;48.130;11.630;2023-04-06T12:37:58;8.07;;;3.10;;
21122;SDS011;10719;48.130;11.630;2023-04-06T12:40:23;7.72;;;3.05;;
21122;SDS011;10719;48.130;11.630;2023-04-06T12:42:49;9.00;;;3.72;;
21122;SDS011;10719;48.130;11.630;2023-04-06T12:45:15;9.00;;;3.60;;
21122;SDS011;10719;48.130;11.630;2023-04-06T12:47:40;8.75;;;3.42;;
21122;SDS011;10719;48.130;11.630;2023-04-06T12:50:06;9.68;;;2.97;;
21122;SDS011;10719;48.130;11.630;2023-04-06T12:52:32;7.82;;;3.10;;
21122;SDS011;10719;48.130;11.630;2023-04-06T12:55:00;7.40;;;2.88;;
21122;SDS011;10719;48.130;11.630;2023-04-06T12:57:30;25.00;;;3.55;;
21122;SDS011;10719;48.130;11.630;2023-04-06T12:59:56;10.38;;;3.80;;
21122;SDS011;10719;48.130;11.630;2023-04-06T13:02:21;7.55;;;3.30;;
21122;SDS011;10719;48.130;11.630;2023-04-06T13:04:48;6.57;;;3.03;;
21122;SDS011;10719;48.130;11.630;2023-04-06T13:07:14;10.05;;;3.25;;
21122;SDS011;10719;48.130;11.630;2023-04-06T13:09:39;7.53;;;3.33;;
21122;SDS011;10719;48.130;11.630;2023-04-06T13:12:05;8.65;;;3.25;;
21122;SDS011;10719;48.130;11.630;2023-04-06T13:14:31;7.60;;;2.92;;
21122;SDS011;10719;48.130;11.630;2023-04-06T13:16:57;8.25;;;3.22;;
21122;SDS011;10719;48.130;11.630;2023-04-06T13:19:22;7.95;;;3.53;;
21122;SDS011;10719;48.130;11.630;2023-04-06T13:21:48;9.30;;;2.80;;
21122;SDS011;10719;48.130;11.630;2023-04-06T13:24:14;8.50;;;3.20;;
21122;SDS011;10719;48.130;11.630;2023-04-06T13:26:40;8.40;;;3.00;;
21122;SDS011;10719;48.130;11.630;2023-04-06T13:29:05;8.18;;;3.25;;
21122;SDS011;10719;48.130;11.630;2023-04-06T13:31:31;7.18;;;2.92;;
21122;SDS011;10719;48.130;11.630;2023-04-06T13:33:57;8.45;;;3.38;;
21122;SDS011;10719;48.130;11.630;2023-04-06T13:36:23;9.10;;;3.13;;
21122;SDS011;10719;48.130;11.630;2023-04-06T13:38:49;8.57;;;2.78;;
21122;SDS011;10719;48.130;11.630;2023-04-06T13:41:21;6.82;;;3.10;;
21122;SDS011;10719;48.130;11.630;2023-04-06T13:43:48;7.55;;;2.83;;
21122;SDS011;10719;48.130;11.630;2023-04-06T13:46:13;12.38;;;2.95;;
21122;SDS011;10719;48.130;11.630;2023-04-06T13:48:39;10.48;;;3.60;;
21122;SDS011;10719;48.130;11.630;2023-04-06T13:51:11;8.63;;;3.25;;
21122;SDS011;10719;48.130;11.630;2023-04-06T13:53:38;10.10;;;4.10;;
21122;SDS011;10719;48.130;11.630;2023-04-06T13:56:04;11.60;;;3.90;;
21122;SDS011;10719;48.130;11.630;2023-04-06T13:58:31;5.68;;;2.53;;
21122;SDS011;10719;48.130;11.630;2023-04-06T14:01:03;8.18;;;3.05;;
21122;SDS011;10719;48.130;11.630;2023-04-06T14:03:34;6.93;;;2.85;;
21122;SDS011;10719;48.130;11.630;2023-04-06T14:06:00;7.25;;;2.85;;
21122;SDS011;10719;48.130;11.630;2023-04-06T14:08:26;6.22;;;2.63;;
21122;SDS011;10719;48.130;11.630;2023-04-06T14:10:52;7.93;;;2.80;;
21122;SDS011;10719;48.130;11.630;2023-04-06T14:13:19;8.30;;;3.20;;
21122;SDS011;10719;48.130;11.630;2023-04-06T14:15:45;7.07;;;2.92;;
21122;SDS011;10719;48.130;11.630;2023-04-06T14:18:11;11.45;;;4.20;;
21122;SDS011;10719;48.130;11.630;2023-04-06T14:20:36;10.20;;;3.88;;
21122;SDS011;10719;48.130;11.630;2023-04-06T14:23:02;11.30;;;3.67;;
21122;SDS011;10719;48.130;11.630;2023-04-06T14:25:28;8.50;;;3.13;;
21122;SDS011;10719;48.130;11.630;2023-04-06T14:27:56;9.32;;;3.53;;
21122;SDS011;10719;48.130;11.630;2023-04-06T14:30:21;8.98;;;3.42;;
21122;SDS011;10719;48.130;11.630;2023-04-06T14:32:47;6.13;;;2.63;;
21122;SDS011;10719;48.130;11.630;2023-04-06T14:35:13;6.40;;;2.65;;